Home > Products > Valid Products > TAF

000
FTPQ31 PGUM 211100
TAFPQ
TAF
PGUM 211126Z 2112/2218 10005KT P6SM VCSH FEW020
     FM212300 11011G17KT P6SM FEW025 SCT050
     FM220900 09005KT P6SM FEW020=



000
FTPQ31 PGUM 211100
TAFPQ
TAF
PGUM 211126Z 2112/2218 10005KT P6SM VCSH FEW020
     FM212300 11011G17KT P6SM FEW025 SCT050
     FM220900 09005KT P6SM FEW020=



000
FTPQ31 PGUM 211000 AAB
TAFPQ
TAF AMD
PGUM 211032Z 2111/2212 10005KT P6SM VCSH FEW020
     FM212300 11011G17KT P6SM FEW025 SCT050
     FM220900 09005KT P6SM FEW020=



000
FTPQ31 PGUM 211000 AAB
TAFPQ
TAF AMD
PGUM 211032Z 2111/2212 10005KT P6SM VCSH FEW020
     FM212300 11011G17KT P6SM FEW025 SCT050
     FM220900 09005KT P6SM FEW020=



000
FTPQ31 PGUM 210500
TAFPQ
TAF
PGUM 210520Z 2106/2212 14011G18KT P6SM VCSH SCT016CB SCT040=



000
FTPQ31 PGUM 210500
TAFPQ
TAF
PGUM 210520Z 2106/2212 14011G18KT P6SM VCSH SCT016CB SCT040=



000
FTPQ31 PGUM 202300
TAFPQ
TAF
PGUM 202339Z 2100/2206 14011G18KT P6SM VCSH SCT016 SCT035
     FM210800 10009KT P6SM FEW020=



000
FTPQ31 PGUM 202300
TAFPQ
TAF
PGUM 202339Z 2100/2206 14011G18KT P6SM VCSH SCT016 SCT035
     FM210800 10009KT P6SM FEW020=



000
FTPQ31 PGUM 201700 RRA
TAFPQ
TAF
PGUM 201742Z 2018/2124 12008KT P6SM VCSH SCT015 SCT040
     FM202300 11015KT P6SM VCSH SCT018 SCT040
     FM210800 10009KT P6SM FEW020=



000
FTPQ31 PGUM 201700 RRA
TAFPQ
TAF
PGUM 201742Z 2018/2124 12008KT P6SM VCSH SCT015 SCT040
     FM202300 11015KT P6SM VCSH SCT018 SCT040
     FM210800 10009KT P6SM FEW020=



000
FTPQ31 PGUM 201100
TAFPQ
TAF
PGUM 201120Z 2012/2118 11009KT P6SM VCSH FEW015 SCT025
     FM202200 11015KT P6SM SCT020 SCT040 BKN150
     FM210800 10009KT P6SM SCT020 SCT040 SCT150=



000
FTPQ31 PGUM 201100
TAFPQ
TAF
PGUM 201120Z 2012/2118 11009KT P6SM VCSH FEW015 SCT025
     FM202200 11015KT P6SM SCT020 SCT040 BKN150
     FM210800 10009KT P6SM SCT020 SCT040 SCT150=



000
FTPQ31 PGUM 200500
TAFPQ
TAF
PGUM 200520Z 2006/2112 13009KT P6SM VCSH FEW018 SCT040=



000
FTPQ31 PGUM 200500
TAFPQ
TAF
PGUM 200520Z 2006/2112 13009KT P6SM VCSH FEW018 SCT040=



000
FTPQ31 PGUM 192300 RRA
TAFPQ
TAF
PGUM 192343Z 2000/2106 13007KT P6SM VCSH FEW018 SCT040
     FM200200 13011G18KT P6SM VCSH FEW018 SCT040
     FM200800 13009KT P6SM VCSH FEW018 SCT040=



000
FTPQ31 PGUM 192300 RRA
TAFPQ
TAF
PGUM 192343Z 2000/2106 13007KT P6SM VCSH FEW018 SCT040
     FM200200 13011G18KT P6SM VCSH FEW018 SCT040
     FM200800 13009KT P6SM VCSH FEW018 SCT040=



000
FTPQ31 PGUM 191700 RRA
TAFPQ
TAF
PGUM 191743Z 1918/2024 13006KT P6SM VCSH SCT015
     FM192300 13014KT P6SM VCSH SCT016 SCT040
     FM200900 12008KT P6SM VCSH SCT018=



000
FTPQ31 PGUM 191700 RRA
TAFPQ
TAF
PGUM 191743Z 1918/2024 13006KT P6SM VCSH SCT015
     FM192300 13014KT P6SM VCSH SCT016 SCT040
     FM200900 12008KT P6SM VCSH SCT018=



000
FTPQ31 PGUM 191100
TAFPQ
TAF
PGUM 191124Z 1912/2018 13006KT P6SM VCSH SCT015 SCT030
     FM192300 12014KT P6SM VCSH SCT020 SCT040=



000
FTPQ31 PGUM 191100
TAFPQ
TAF
PGUM 191124Z 1912/2018 13006KT P6SM VCSH SCT015 SCT030
     FM192300 12014KT P6SM VCSH SCT020 SCT040=



000
FTPQ31 PGUM 190500
TAFPQ
TAF
PGUM 190520Z 1906/2012 10012G19KT P6SM VCSH SCT015 SCT025
     FM190900 12006KT P6SM VCSH FEW015 SCT030
     FM192300 11012G19KT P6SM VCSH SCT020 SCT040=



000
FTPQ31 PGUM 190500
TAFPQ
TAF
PGUM 190520Z 1906/2012 10012G19KT P6SM VCSH SCT015 SCT025
     FM190900 12006KT P6SM VCSH FEW015 SCT030
     FM192300 11012G19KT P6SM VCSH SCT020 SCT040=



000
FTPQ31 PGUM 182300
TAFPQ
TAF
PGUM 182327Z 1900/2006 10012G19KT P6SM VCSH SCT015 SCT025
     FM190900 13006KT P6SM VCSH FEW015 SCT030=



000
FTPQ31 PGUM 182300
TAFPQ
TAF
PGUM 182327Z 1900/2006 10012G19KT P6SM VCSH SCT015 SCT025
     FM190900 13006KT P6SM VCSH FEW015 SCT030=



000
FTPQ31 PGUM 181700
TAFPQ
TAF
PGUM 181724Z 1818/1924 09009KT P6SM VCSH FEW014 SCT024 BKN100
     FM190000 13012G20KT P6SM VCSH SCT018 SCT040 BKN140
     FM190900 12008KT P6SM VCSH SCT018 SCT050=



000
FTPQ31 PGUM 181700
TAFPQ
TAF
PGUM 181724Z 1818/1924 09009KT P6SM VCSH FEW014 SCT024 BKN100
     FM190000 13012G20KT P6SM VCSH SCT018 SCT040 BKN140
     FM190900 12008KT P6SM VCSH SCT018 SCT050=



    US Dept of Commerce
    National Oceanic and Atmospheric Administration
    National Weather Service
    1325 East West Highway
    Silver Spring, MD 20910
    Page Author: NWS Internet Services Team
Disclaimer
Information Quality
Credits
Glossary
Privacy Policy
Freedom of Information Act (FOIA)
About Us
Career Opportunities